createdAt,value
2023-05-05T00:00:00.466Z,13.63
2023-05-05T00:02:29.185Z,13.60
2023-05-05T00:04:57.367Z,13.59
2023-05-05T00:07:25.497Z,13.55
2023-05-05T00:09:56.556Z,13.53
2023-05-05T00:12:24.767Z,13.47
2023-05-05T00:14:54.797Z,13.45
2023-05-05T00:17:23.192Z,13.42
2023-05-05T00:19:51.391Z,13.38
2023-05-05T00:22:19.785Z,13.28
2023-05-05T00:24:47.920Z,13.32
2023-05-05T00:27:15.959Z,13.34
2023-05-05T00:29:44.293Z,13.32
2023-05-05T00:32:12.401Z,13.35
2023-05-05T00:34:40.553Z,13.36
2023-05-05T00:37:08.806Z,13.34
2023-05-05T00:39:36.826Z,13.35
2023-05-05T00:42:04.769Z,13.30
2023-05-05T00:44:41.913Z,13.30
2023-05-05T00:47:14.370Z,13.34
2023-05-05T00:49:43.120Z,13.38
2023-05-05T00:52:13.366Z,13.36
2023-05-05T00:54:41.718Z,13.34
2023-05-05T00:57:10.910Z,13.34
2023-05-05T00:59:39.508Z,13.36
2023-05-05T01:02:07.908Z,13.36
2023-05-05T01:04:36.670Z,13.36
2023-05-05T01:07:16.109Z,13.38
2023-05-05T01:10:18.122Z,13.34
2023-05-05T01:13:05.615Z,13.34
2023-05-05T01:15:55.786Z,13.26
2023-05-05T01:18:44.267Z,13.22
2023-05-05T01:21:33.664Z,13.18
2023-05-05T01:24:18.466Z,13.18
2023-05-05T01:27:07.213Z,13.14
2023-05-05T01:29:36.003Z,13.14
2023-05-05T01:32:16.474Z,13.12
2023-05-05T01:35:04.404Z,13.11
2023-05-05T01:37:46.396Z,13.08
2023-05-05T01:40:20.054Z,13.08
2023-05-05T01:42:50.989Z,13.07
2023-05-05T01:45:22.057Z,13.05
2023-05-05T01:47:52.301Z,13.05
2023-05-05T01:50:22.374Z,13.08
2023-05-05T01:52:51.721Z,13.10
2023-05-05T01:55:22.397Z,13.12
2023-05-05T01:57:51.684Z,13.12
2023-05-05T02:00:34.298Z,13.16
2023-05-05T02:03:05.050Z,13.22
2023-05-05T02:05:34.410Z,13.29
2023-05-05T02:08:04.923Z,13.40
2023-05-05T02:10:33.815Z,13.53
2023-05-05T02:13:03.252Z,13.67
2023-05-05T02:15:33.761Z,13.80
2023-05-05T02:18:05.724Z,13.94
2023-05-05T02:20:36.089Z,14.04
2023-05-05T02:23:05.976Z,14.11
2023-05-05T02:25:45.698Z,14.19
2023-05-05T02:28:26.988Z,14.26
2023-05-05T02:31:01.014Z,14.28
2023-05-05T02:33:35.228Z,14.32
2023-05-05T02:36:23.606Z,14.38
2023-05-05T02:39:02.396Z,14.42
2023-05-05T02:41:38.392Z,14.45
2023-05-05T02:44:13.995Z,14.47
2023-05-05T02:46:43.966Z,14.53
2023-05-05T02:49:12.190Z,14.55
2023-05-05T02:51:41.496Z,14.53
2023-05-05T02:54:18.152Z,14.55
2023-05-05T02:56:51.307Z,14.53
2023-05-05T02:59:31.604Z,14.46
2023-05-05T03:02:13.419Z,14.42
2023-05-05T03:04:48.728Z,14.32
2023-05-05T03:07:27.764Z,14.25
2023-05-05T03:10:06.429Z,14.19
2023-05-05T03:12:46.798Z,14.11
2023-05-05T03:15:25.141Z,14.02
2023-05-05T03:17:55.904Z,13.95
2023-05-05T03:20:25.057Z,13.88
2023-05-05T03:22:55.081Z,13.84
2023-05-05T03:25:23.251Z,13.77
2023-05-05T03:27:51.460Z,13.76
2023-05-05T03:30:22.422Z,13.73
2023-05-05T03:32:52.897Z,13.71
2023-05-05T03:35:22.089Z,13.70
2023-05-05T03:37:50.630Z,13.71
2023-05-05T03:40:20.181Z,13.73
2023-05-05T03:42:49.199Z,13.67
2023-05-05T03:45:18.191Z,13.63
2023-05-05T03:47:46.302Z,13.64
2023-05-05T03:50:14.865Z,13.64
2023-05-05T03:52:43.144Z,13.66
2023-05-05T03:55:11.726Z,13.64
2023-05-05T03:57:40.008Z,13.64
2023-05-05T04:00:11.944Z,13.60
2023-05-05T04:02:45.572Z,13.60
2023-05-05T04:05:19.910Z,13.56
2023-05-05T04:07:49.823Z,13.50
2023-05-05T04:10:17.980Z,13.45
2023-05-05T04:12:46.637Z,13.42
2023-05-05T04:15:14.836Z,13.36
2023-05-05T04:17:43.243Z,13.30
2023-05-05T04:20:11.598Z,13.29
2023-05-05T04:22:40.882Z,13.29
2023-05-05T04:25:09.591Z,13.30
2023-05-05T04:27:37.902Z,13.32
2023-05-05T04:30:12.802Z,13.39
2023-05-05T04:32:42.296Z,13.46
2023-05-05T04:35:11.490Z,13.52
2023-05-05T04:37:40.175Z,13.53
2023-05-05T04:40:10.203Z,13.57
2023-05-05T04:42:40.108Z,13.63
2023-05-05T04:45:11.455Z,13.66
2023-05-05T04:47:42.881Z,14.26
2023-05-05T04:50:11.797Z,15.04
2023-05-05T04:52:41.292Z,14.95
2023-05-05T04:55:10.790Z,14.80
2023-05-05T04:57:39.789Z,15.04
2023-05-05T05:00:09.916Z,16.07
2023-05-05T05:02:39.087Z,16.88
2023-05-05T05:05:08.412Z,17.38
2023-05-05T05:07:36.829Z,18.00
2023-05-05T05:10:06.315Z,18.32
2023-05-05T05:12:35.127Z,19.00
2023-05-05T05:15:03.617Z,19.22
2023-05-05T05:17:32.828Z,19.17
2023-05-05T05:20:05.089Z,18.90
2023-05-05T05:22:38.520Z,17.61
2023-05-05T05:25:09.871Z,17.27
2023-05-05T05:27:38.122Z,18.42
2023-05-05T05:30:07.137Z,19.10
2023-05-05T05:32:35.436Z,19.61
2023-05-05T05:35:04.077Z,19.89
2023-05-05T05:37:32.379Z,20.18
2023-05-05T05:40:05.663Z,20.03
2023-05-05T05:42:35.844Z,19.98
2023-05-05T05:45:05.733Z,20.11
2023-05-05T05:47:34.314Z,20.52
2023-05-05T05:50:04.954Z,20.97
2023-05-05T05:52:36.297Z,20.66
2023-05-05T05:55:15.238Z,20.77
2023-05-05T05:57:44.329Z,20.94
2023-05-05T06:00:17.002Z,21.01
2023-05-05T06:02:54.631Z,21.17
2023-05-05T06:05:27.444Z,21.15
2023-05-05T06:08:03.295Z,21.12
2023-05-05T06:10:36.804Z,21.44
2023-05-05T06:13:09.991Z,22.17
2023-05-05T06:15:44.139Z,22.49
2023-05-05T06:18:15.999Z,22.73
2023-05-05T06:20:44.495Z,22.66
2023-05-05T06:23:14.595Z,22.76
2023-05-05T06:25:48.171Z,22.69
2023-05-05T06:28:17.045Z,22.22
2023-05-05T06:30:46.091Z,22.61
2023-05-05T06:33:14.020Z,22.17
2023-05-05T06:35:41.914Z,22.21
2023-05-05T06:38:10.191Z,22.07
2023-05-05T06:40:38.580Z,22.34
2023-05-05T06:43:06.549Z,22.04
2023-05-05T06:45:40.049Z,22.95
2023-05-05T06:48:08.635Z,22.85
2023-05-05T06:50:36.490Z,22.54
2023-05-05T06:53:04.583Z,22.75
2023-05-05T06:55:32.654Z,22.89
2023-05-05T06:58:00.916Z,23.13
2023-05-05T07:00:29.035Z,22.69
2023-05-05T07:02:57.098Z,22.27
2023-05-05T07:05:25.049Z,22.88
2023-05-05T07:07:57.089Z,23.27
2023-05-05T07:10:26.318Z,23.40
2023-05-05T07:12:55.285Z,23.26
2023-05-05T07:15:27.516Z,22.92
2023-05-05T07:17:57.494Z,23.51
2023-05-05T07:20:25.948Z,23.71
2023-05-05T07:22:53.816Z,24.09
2023-05-05T07:25:21.985Z,24.51
2023-05-05T07:27:50.166Z,24.89
2023-05-05T07:30:19.068Z,24.55
2023-05-05T07:32:47.717Z,24.30
2023-05-05T07:35:15.883Z,24.90
2023-05-05T07:37:45.650Z,25.09
2023-05-05T07:40:13.864Z,24.57
2023-05-05T07:42:42.314Z,24.57
2023-05-05T07:45:11.119Z,24.64
2023-05-05T07:47:40.627Z,25.06
2023-05-05T07:50:09.459Z,24.90
2023-05-05T07:52:48.429Z,24.85
2023-05-05T07:55:21.858Z,24.93
2023-05-05T07:57:50.015Z,25.06
2023-05-05T08:00:19.711Z,25.12
2023-05-05T08:02:48.752Z,25.34
2023-05-05T08:05:17.023Z,24.54
2023-05-05T08:07:45.200Z,24.67
2023-05-05T08:10:13.616Z,24.69
2023-05-05T08:12:42.360Z,24.54
2023-05-05T08:15:10.856Z,24.69
2023-05-05T08:17:46.334Z,24.61
2023-05-05T08:20:15.000Z,24.76
2023-05-05T08:22:43.155Z,24.48
2023-05-05T08:25:13.043Z,24.30
2023-05-05T08:27:42.645Z,24.12
2023-05-05T08:30:14.412Z,23.78
2023-05-05T08:32:42.520Z,23.96
2023-05-05T08:35:11.105Z,23.80
2023-05-05T08:37:39.573Z,23.30
2023-05-05T08:40:08.605Z,22.47
2023-05-05T08:42:38.465Z,22.65
2023-05-05T08:45:11.989Z,22.49
2023-05-05T08:47:43.735Z,22.21
2023-05-05T08:50:17.391Z,22.01
2023-05-05T08:52:51.430Z,21.73
2023-05-05T08:55:26.713Z,21.67
2023-05-05T08:58:01.177Z,21.69
2023-05-05T09:00:29.750Z,21.92
2023-05-05T09:02:59.242Z,22.65
2023-05-05T09:05:28.172Z,22.48
2023-05-05T09:07:58.775Z,22.34
2023-05-05T09:10:29.639Z,22.03
2023-05-05T09:13:00.286Z,22.13
2023-05-05T09:15:28.773Z,21.51
2023-05-05T09:17:58.486Z,21.59
2023-05-05T09:20:35.688Z,21.72
2023-05-05T09:23:18.133Z,21.63
2023-05-05T09:26:02.028Z,21.71
2023-05-05T09:28:30.276Z,21.59
2023-05-05T09:31:13.775Z,21.71
2023-05-05T09:33:41.904Z,21.83
2023-05-05T09:36:12.336Z,21.90
2023-05-05T09:38:42.862Z,21.78
2023-05-05T09:41:13.477Z,21.73
2023-05-05T09:43:55.835Z,21.88
2023-05-05T09:46:24.257Z,21.96
2023-05-05T09:48:52.547Z,22.10
2023-05-05T09:51:29.911Z,22.18
2023-05-05T09:53:58.338Z,22.28
2023-05-05T09:56:39.599Z,22.34
2023-05-05T09:59:12.077Z,22.51
2023-05-05T10:01:43.645Z,22.34
2023-05-05T10:04:31.906Z,21.92
2023-05-05T10:07:00.159Z,21.73
2023-05-05T10:12:11.079Z,21.78
2023-05-05T10:14:45.649Z,21.83
2023-05-05T10:17:15.580Z,21.78
2023-05-05T10:19:44.471Z,21.79
2023-05-05T10:22:13.126Z,21.86
2023-05-05T10:24:52.387Z,21.71
2023-05-05T10:27:27.940Z,21.88
2023-05-05T10:30:08.311Z,21.79
2023-05-05T10:32:57.344Z,21.75
2023-05-05T10:35:31.023Z,21.35
2023-05-05T10:38:03.381Z,21.08
2023-05-05T10:40:35.620Z,21.00
2023-05-05T10:43:04.569Z,21.08
2023-05-05T10:45:35.338Z,21.28
2023-05-05T10:48:08.973Z,21.27
2023-05-05T10:50:45.451Z,21.58
2023-05-05T10:53:26.143Z,21.51
2023-05-05T10:56:20.664Z,21.55
2023-05-05T10:58:59.665Z,21.67
2023-05-05T11:01:37.161Z,21.61
2023-05-05T11:04:24.613Z,21.72
2023-05-05T11:07:14.624Z,21.93
2023-05-05T11:10:01.589Z,22.20
2023-05-05T11:12:31.572Z,22.52
2023-05-05T11:15:38.240Z,22.38
2023-05-05T11:18:08.258Z,22.28
2023-05-05T11:20:37.049Z,22.10
2023-05-05T11:23:05.466Z,21.75
2023-05-05T11:25:36.932Z,21.62
2023-05-05T11:28:09.415Z,20.82
2023-05-05T11:30:58.506Z,18.96
2023-05-05T11:33:37.516Z,17.86
2023-05-05T11:36:09.895Z,17.19
2023-05-05T11:39:15.094Z,17.06
2023-05-05T11:42:10.761Z,16.59
2023-05-05T11:44:39.471Z,16.81
2023-05-05T11:47:07.473Z,16.35
2023-05-05T11:49:42.441Z,16.19
2023-05-05T11:52:21.670Z,15.98
2023-05-05T11:54:50.488Z,16.00
2023-05-05T11:57:29.725Z,15.76
2023-05-05T11:59:59.746Z,15.40
2023-05-05T12:02:29.893Z,15.29
2023-05-05T12:04:59.693Z,15.18
2023-05-05T12:07:30.989Z,15.10
2023-05-05T12:09:59.960Z,14.98
2023-05-05T12:12:39.360Z,14.87
2023-05-05T12:15:09.783Z,14.85
2023-05-05T12:17:45.052Z,14.69
2023-05-05T12:20:13.854Z,14.59
2023-05-05T12:22:42.478Z,14.63
2023-05-05T12:25:10.774Z,14.70
2023-05-05T12:27:39.182Z,14.69
2023-05-05T12:30:17.993Z,14.65
2023-05-05T12:32:46.658Z,14.70
2023-05-05T12:35:15.875Z,14.76
2023-05-05T12:37:44.277Z,14.57
2023-05-05T12:40:47.634Z,14.52
2023-05-05T12:43:46.152Z,14.53
2023-05-05T12:46:17.675Z,14.59
2023-05-05T12:48:48.199Z,14.47
2023-05-05T12:51:17.791Z,14.57
2023-05-05T12:53:46.998Z,14.53
2023-05-05T12:56:43.074Z,14.56
2023-05-05T12:59:30.717Z,14.50
2023-05-05T13:02:02.941Z,14.50
2023-05-05T13:04:31.236Z,14.53
2023-05-05T13:07:10.715Z,14.52
2023-05-05T13:09:38.875Z,14.42
2023-05-05T13:12:11.142Z,14.65
2023-05-05T13:14:40.008Z,14.50
2023-05-05T13:17:10.201Z,14.49
2023-05-05T13:19:42.655Z,14.49
2023-05-05T13:22:10.740Z,14.60
2023-05-05T13:24:50.793Z,14.60
2023-05-05T13:27:33.465Z,14.69
2023-05-05T13:30:04.665Z,14.73
2023-05-05T13:32:33.372Z,14.79
2023-05-05T13:35:05.001Z,14.67
2023-05-05T13:37:33.626Z,14.69
2023-05-05T13:40:01.894Z,14.66
2023-05-05T13:42:30.435Z,14.62
2023-05-05T13:44:58.785Z,14.59
2023-05-05T13:47:26.927Z,14.59
2023-05-05T13:49:56.223Z,14.53
2023-05-05T13:52:24.370Z,14.52
2023-05-05T13:54:52.440Z,14.57
2023-05-05T13:57:20.535Z,14.50
2023-05-05T13:59:48.430Z,14.60
2023-05-05T14:02:16.652Z,14.66
2023-05-05T14:04:44.796Z,14.74
2023-05-05T14:07:12.720Z,14.90
2023-05-05T14:09:40.952Z,14.95
2023-05-05T14:12:09.170Z,15.14
2023-05-05T14:14:37.726Z,15.22
2023-05-05T14:17:06.121Z,15.36
2023-05-05T14:19:34.213Z,15.45
2023-05-05T14:22:02.886Z,15.60
2023-05-05T14:24:31.127Z,15.56
2023-05-05T14:27:01.170Z,15.67
2023-05-05T14:29:32.310Z,15.84
2023-05-05T14:32:00.711Z,15.69
2023-05-05T14:34:29.045Z,15.79
2023-05-05T14:36:57.430Z,15.97
2023-05-05T14:39:28.178Z,15.94
2023-05-05T14:42:04.890Z,15.80
2023-05-05T14:44:33.272Z,15.83
2023-05-05T14:47:01.431Z,15.76
2023-05-05T14:49:32.391Z,15.59
2023-05-05T14:52:00.615Z,15.45
2023-05-05T14:54:29.174Z,15.36
2023-05-05T14:56:58.589Z,15.40
2023-05-05T14:59:27.555Z,15.34
2023-05-05T15:01:57.262Z,15.22
2023-05-05T15:04:25.407Z,15.25
2023-05-05T15:06:54.018Z,15.36
2023-05-05T15:09:22.048Z,15.57
2023-05-05T15:14:38.380Z,15.93
2023-05-05T15:17:08.704Z,16.05
2023-05-05T15:19:36.816Z,16.18
2023-05-05T15:22:07.755Z,16.28
2023-05-05T15:24:35.911Z,16.35
2023-05-05T15:27:04.432Z,16.30
2023-05-05T15:29:32.545Z,16.33
2023-05-05T15:32:00.788Z,16.21
2023-05-05T15:34:34.532Z,16.11
2023-05-05T15:37:02.686Z,15.96
2023-05-05T15:39:31.112Z,15.80
2023-05-05T15:45:06.368Z,16.10
2023-05-05T15:47:34.556Z,16.08
2023-05-05T15:50:03.254Z,16.08
2023-05-05T15:52:33.874Z,16.08
2023-05-05T15:55:02.244Z,16.01
2023-05-05T15:57:31.550Z,16.15
2023-05-05T16:00:03.413Z,16.15
2023-05-05T16:02:35.908Z,16.17
2023-05-05T16:05:10.527Z,16.19
2023-05-05T16:07:39.323Z,16.25
2023-05-05T16:10:08.421Z,16.30
2023-05-05T16:12:36.624Z,15.96
2023-05-05T16:15:05.141Z,16.02
2023-05-05T16:17:34.716Z,15.84
2023-05-05T16:20:02.885Z,15.82
2023-05-05T16:22:30.779Z,15.94
2023-05-05T16:24:58.848Z,15.90
2023-05-05T16:27:27.203Z,15.91
2023-05-05T16:29:55.930Z,15.97
2023-05-05T16:32:25.365Z,15.94
2023-05-05T16:34:53.415Z,15.90
2023-05-05T16:37:21.606Z,15.87
2023-05-05T16:39:51.630Z,15.87
2023-05-05T16:42:20.287Z,15.87
2023-05-05T16:44:54.025Z,15.87
2023-05-05T16:47:22.235Z,15.84
2023-05-05T16:49:55.275Z,15.86
2023-05-05T16:52:23.352Z,15.96
2023-05-05T16:54:55.759Z,15.97
2023-05-05T16:57:23.979Z,15.91
2023-05-05T16:59:54.720Z,15.79
2023-05-05T17:02:23.317Z,15.76
2023-05-05T17:04:54.104Z,15.74
2023-05-05T17:07:27.676Z,15.70
2023-05-05T17:09:56.162Z,15.73
2023-05-05T17:12:42.880Z,15.79
2023-05-05T17:15:14.042Z,15.82
2023-05-05T17:17:45.650Z,15.80
2023-05-05T17:20:14.632Z,15.86
2023-05-05T17:22:44.106Z,15.84
2023-05-05T17:25:13.198Z,15.83
2023-05-05T17:27:45.946Z,15.82
2023-05-05T17:30:20.707Z,15.71
2023-05-05T17:32:49.859Z,15.70
2023-05-05T17:35:19.129Z,15.69
2023-05-05T17:37:54.684Z,15.65
2023-05-05T17:40:24.464Z,15.59
2023-05-05T17:42:52.905Z,15.60
2023-05-05T17:45:21.946Z,15.57
2023-05-05T17:47:54.933Z,15.53
2023-05-05T17:50:23.799Z,15.55
2023-05-05T17:52:58.966Z,15.47
2023-05-05T17:55:31.004Z,15.42
2023-05-05T17:58:00.450Z,15.46
2023-05-05T18:00:29.446Z,15.46
2023-05-05T18:02:58.141Z,15.49
2023-05-05T18:05:26.666Z,15.45
2023-05-05T18:07:56.760Z,15.46
2023-05-05T18:10:31.551Z,15.46
2023-05-05T18:13:03.694Z,15.43
2023-05-05T18:15:50.377Z,15.40
2023-05-05T18:18:21.153Z,15.35
2023-05-05T18:20:50.239Z,15.27
2023-05-05T18:23:19.082Z,15.29
2023-05-05T18:25:47.927Z,15.24
2023-05-05T18:28:16.743Z,15.21
2023-05-05T18:30:48.251Z,15.15
2023-05-05T18:33:17.358Z,15.12
2023-05-05T18:35:46.356Z,15.05
2023-05-05T18:38:14.823Z,15.01
2023-05-05T18:40:43.137Z,14.98
2023-05-05T18:43:12.072Z,14.93
2023-05-05T18:45:41.141Z,14.87
2023-05-05T18:48:10.384Z,14.81
2023-05-05T18:50:39.075Z,14.73
2023-05-05T18:53:07.574Z,14.66
2023-05-05T18:55:35.947Z,14.60
2023-05-05T18:58:07.407Z,14.57
2023-05-05T19:00:38.655Z,14.53
2023-05-05T19:03:07.868Z,14.42
2023-05-05T19:05:36.985Z,14.33
2023-05-05T19:08:10.589Z,14.22
2023-05-05T19:10:39.125Z,14.14
2023-05-05T19:13:11.793Z,14.05
2023-05-05T19:15:44.802Z,13.95
2023-05-05T19:18:16.021Z,13.90
2023-05-05T19:20:44.612Z,13.81
2023-05-05T19:23:13.321Z,13.77
2023-05-05T19:25:41.883Z,13.69
2023-05-05T19:28:11.618Z,13.64
2023-05-05T19:30:40.500Z,13.56
2023-05-05T19:33:13.964Z,13.50
2023-05-05T19:35:44.947Z,13.45
2023-05-05T19:38:19.869Z,13.40
2023-05-05T19:40:51.397Z,13.35
2023-05-05T19:43:26.063Z,13.30
2023-05-05T19:45:55.953Z,13.22
2023-05-05T19:48:25.245Z,13.16
2023-05-05T19:50:53.721Z,13.12
2023-05-05T19:53:22.370Z,13.05
2023-05-05T19:55:51.493Z,12.97
2023-05-05T19:58:20.135Z,12.93
2023-05-05T20:00:51.544Z,12.88
2023-05-05T20:03:23.088Z,12.85
2023-05-05T20:05:51.709Z,12.80
2023-05-05T20:08:20.256Z,12.80
2023-05-05T20:10:50.506Z,12.73
2023-05-05T20:13:19.196Z,12.72
2023-05-05T20:15:50.958Z,12.67
2023-05-05T20:18:19.371Z,12.61
2023-05-05T20:20:55.066Z,12.59
2023-05-05T20:23:32.459Z,12.53
2023-05-05T20:26:01.831Z,12.50
2023-05-05T20:28:34.540Z,12.45
2023-05-05T20:31:03.019Z,12.39
2023-05-05T20:33:31.127Z,12.32
2023-05-05T20:36:02.024Z,12.26
2023-05-05T20:38:31.973Z,12.25
2023-05-05T20:41:00.129Z,12.18
2023-05-05T20:43:28.379Z,12.14
2023-05-05T20:45:56.734Z,12.05
2023-05-05T20:48:24.778Z,11.98
2023-05-05T20:50:52.807Z,11.94
2023-05-05T20:53:21.373Z,11.93
2023-05-05T20:55:50.551Z,11.87
2023-05-05T20:58:21.200Z,11.87
2023-05-05T21:00:49.620Z,11.85
2023-05-05T21:03:17.718Z,11.81
2023-05-05T21:05:48.585Z,11.78
2023-05-05T21:08:18.949Z,11.74
2023-05-05T21:10:46.729Z,11.70
2023-05-05T21:13:16.436Z,11.71
2023-05-05T21:15:44.557Z,11.66
2023-05-05T21:18:12.666Z,11.66
2023-05-05T21:20:41.454Z,11.66
2023-05-05T21:23:09.510Z,11.60
2023-05-05T21:25:37.518Z,11.59
2023-05-05T21:28:05.608Z,11.57
2023-05-05T21:30:33.567Z,11.53
2023-05-05T21:33:01.728Z,11.53
2023-05-05T21:35:29.742Z,11.47
2023-05-05T21:37:57.711Z,11.52
2023-05-05T21:40:26.371Z,11.46
2023-05-05T21:42:54.488Z,11.44
2023-05-05T21:45:22.576Z,11.46
2023-05-05T21:47:50.889Z,11.40
2023-05-05T21:50:19.018Z,11.32
2023-05-05T21:52:47.395Z,11.33
2023-05-05T21:55:15.570Z,11.33
2023-05-05T21:57:46.117Z,11.29
2023-05-05T22:00:16.885Z,11.29
2023-05-05T22:02:45.983Z,11.23
2023-05-05T22:05:14.190Z,11.21
2023-05-05T22:07:42.376Z,11.19
2023-05-05T22:10:10.863Z,11.18
2023-05-05T22:12:39.054Z,11.12
2023-05-05T22:15:07.960Z,11.11
2023-05-05T22:17:36.548Z,11.05
2023-05-05T22:20:05.756Z,11.02
2023-05-05T22:22:33.967Z,11.00
2023-05-05T22:25:01.935Z,10.95
2023-05-05T22:27:31.063Z,10.91
2023-05-05T22:29:59.471Z,10.88
2023-05-05T22:32:27.412Z,10.81
2023-05-05T22:34:55.506Z,10.78
2023-05-05T22:37:25.711Z,10.78
2023-05-05T22:39:59.787Z,10.77
2023-05-05T22:42:27.767Z,10.71
2023-05-05T22:44:55.815Z,10.73
2023-05-05T22:47:23.868Z,10.83
2023-05-05T22:49:52.038Z,10.80
2023-05-05T22:52:22.300Z,10.75
2023-05-05T22:54:50.389Z,10.71
2023-05-05T22:57:18.435Z,10.70
2023-05-05T22:59:46.429Z,10.63
2023-05-05T23:02:14.525Z,10.64
2023-05-05T23:04:44.864Z,10.63
2023-05-05T23:07:13.643Z,10.67
2023-05-05T23:09:41.881Z,10.68
2023-05-05T23:12:09.957Z,10.71
2023-05-05T23:14:38.917Z,10.75
2023-05-05T23:17:06.908Z,10.78
2023-05-05T23:19:35.134Z,10.80
2023-05-05T23:22:04.122Z,10.83
2023-05-05T23:24:32.202Z,10.84
2023-05-05T23:27:04.047Z,10.87
2023-05-05T23:29:33.302Z,10.94
2023-05-05T23:32:01.266Z,10.94
2023-05-05T23:34:29.337Z,10.91
2023-05-05T23:36:57.314Z,10.85
2023-05-05T23:39:25.382Z,10.80
2023-05-05T23:41:53.451Z,10.73
2023-05-05T23:44:24.794Z,10.68
2023-05-05T23:46:52.884Z,10.64
2023-05-05T23:49:20.961Z,10.57
2023-05-05T23:51:49.037Z,10.53
2023-05-05T23:54:16.996Z,10.56
2023-05-05T23:56:47.826Z,10.53
2023-05-05T23:59:15.888Z,10.57
